createdAt,value
2022-11-05T00:05:12.362Z,11.68
2022-11-05T00:10:26.112Z,11.79
2022-11-05T00:15:46.243Z,11.66
2022-11-05T00:20:47.515Z,11.72
2022-11-05T00:26:00.375Z,11.76
2022-11-05T00:31:06.934Z,11.69
2022-11-05T00:36:10.685Z,11.76
2022-11-05T00:41:11.990Z,11.77
2022-11-05T00:46:13.372Z,11.73
2022-11-05T00:51:14.718Z,11.76
2022-11-05T00:56:16.004Z,11.79
2022-11-05T01:01:17.469Z,11.83
2022-11-05T01:06:19.002Z,11.92
2022-11-05T01:11:36.963Z,11.95
2022-11-05T01:16:39.808Z,11.96
2022-11-05T01:21:41.153Z,11.99
2022-11-05T01:26:42.544Z,11.92
2022-11-05T01:31:43.868Z,11.84
2022-11-05T01:36:45.215Z,11.86
2022-11-05T01:41:46.604Z,11.87
2022-11-05T01:46:47.915Z,11.79
2022-11-05T01:51:51.231Z,11.78
2022-11-05T01:56:59.683Z,11.67
2022-11-05T02:02:03.399Z,11.67
2022-11-05T02:07:07.552Z,11.70
2022-11-05T02:12:10.667Z,11.73
2022-11-05T02:17:21.534Z,11.79
2022-11-05T02:23:05.079Z,11.79
2022-11-05T02:28:42.677Z,11.73
2022-11-05T02:33:56.705Z,11.77
2022-11-05T02:39:27.014Z,11.80
2022-11-05T02:44:47.108Z,11.71
2022-11-05T02:49:57.324Z,11.78
2022-11-05T02:55:13.963Z,11.78
2022-11-05T03:00:43.402Z,11.78
2022-11-05T03:05:58.599Z,11.83
2022-11-05T03:11:16.503Z,11.84
2022-11-05T03:16:43.031Z,11.75
2022-11-05T03:21:58.843Z,11.69
2022-11-05T03:27:08.743Z,11.58
2022-11-05T03:32:12.277Z,11.65
2022-11-05T03:37:16.769Z,11.75
2022-11-05T03:42:19.734Z,11.79
2022-11-05T03:47:28.135Z,11.72
2022-11-05T03:52:36.310Z,11.64
2022-11-05T03:57:41.247Z,11.60
2022-11-05T04:02:42.693Z,11.64
2022-11-05T04:08:03.393Z,11.68
2022-11-05T04:13:25.758Z,11.67
2022-11-05T04:18:27.153Z,11.63
2022-11-05T04:23:47.073Z,11.55
2022-11-05T04:29:11.282Z,11.59
2022-11-05T04:34:12.646Z,11.59
2022-11-05T04:39:13.932Z,11.56
2022-11-05T04:44:15.961Z,11.48
2022-11-05T04:49:17.254Z,11.49
2022-11-05T04:54:18.622Z,11.59
2022-11-05T04:59:19.915Z,11.51
2022-11-05T05:04:21.235Z,11.52
2022-11-05T05:09:22.543Z,11.51
2022-11-05T05:14:23.845Z,11.45
2022-11-05T05:19:25.747Z,11.45
2022-11-05T05:24:27.066Z,11.27
2022-11-05T05:29:28.362Z,11.17
2022-11-05T05:34:29.674Z,11.17
2022-11-05T05:39:31.048Z,11.10
2022-11-05T05:44:32.339Z,11.03
2022-11-05T05:49:33.701Z,11.01
2022-11-05T05:54:39.744Z,11.00
2022-11-05T05:59:43.691Z,11.07
2022-11-05T06:04:45.333Z,11.08
2022-11-05T06:09:46.727Z,11.03
2022-11-05T06:14:48.068Z,11.07
2022-11-05T06:19:49.379Z,11.15
2022-11-05T06:24:50.652Z,11.14
2022-11-05T06:29:51.975Z,11.21
2022-11-05T06:34:53.367Z,11.24
2022-11-05T06:39:57.002Z,11.29
2022-11-05T06:44:58.375Z,11.27
2022-11-05T06:49:59.731Z,11.35
2022-11-05T06:55:02.361Z,11.27
2022-11-05T07:00:07.854Z,11.38
2022-11-05T07:05:11.139Z,11.26
2022-11-05T07:10:15.233Z,11.25
2022-11-05T07:15:16.650Z,11.19
2022-11-05T07:20:18.047Z,11.21
2022-11-05T07:25:19.460Z,11.16
2022-11-05T07:30:20.755Z,11.21
2022-11-05T07:35:23.002Z,11.27
2022-11-05T07:40:26.468Z,11.29
2022-11-05T07:45:30.212Z,11.66
2022-11-05T07:50:34.273Z,11.77
2022-11-05T07:55:35.761Z,11.67
2022-11-05T08:00:37.637Z,11.48
2022-11-05T08:05:41.114Z,11.57
2022-11-05T08:10:43.044Z,11.64
2022-11-05T08:15:44.927Z,11.97
2022-11-05T08:20:47.573Z,12.25
2022-11-05T08:25:48.890Z,12.38
2022-11-05T08:30:51.977Z,12.50
2022-11-05T08:35:53.551Z,12.61
2022-11-05T08:40:57.479Z,12.70
2022-11-05T08:46:00.899Z,12.67
2022-11-05T08:51:02.187Z,12.53
2022-11-05T08:56:03.654Z,12.68
2022-11-05T09:01:05.760Z,12.98
2022-11-05T09:06:07.563Z,12.79
2022-11-05T09:11:08.919Z,12.64
2022-11-05T09:16:22.407Z,12.75
2022-11-05T09:21:23.758Z,12.81
2022-11-05T09:26:25.058Z,12.88
2022-11-05T09:31:26.387Z,13.00
2022-11-05T09:36:27.821Z,13.00
2022-11-05T09:41:36.998Z,13.12
2022-11-05T09:46:55.880Z,13.40
2022-11-05T09:51:58.789Z,13.64
2022-11-05T09:57:02.197Z,14.09
2022-11-05T10:02:17.045Z,14.34
2022-11-05T10:07:22.840Z,14.91
2022-11-05T10:12:36.116Z,16.24
2022-11-05T10:17:40.722Z,18.21
2022-11-05T10:22:46.604Z,22.38
2022-11-05T10:27:54.436Z,25.33
2022-11-05T10:32:59.777Z,26.94
2022-11-05T10:38:01.721Z,27.41
2022-11-05T10:43:14.914Z,27.81
2022-11-05T10:48:46.280Z,23.09
2022-11-05T10:54:00.340Z,25.32
2022-11-05T10:59:11.928Z,29.06
2022-11-05T11:04:20.332Z,26.53
2022-11-05T11:09:35.540Z,25.41
2022-11-05T11:14:36.848Z,29.76
2022-11-05T11:19:38.567Z,23.45
2022-11-05T11:24:45.644Z,20.08
2022-11-05T11:29:56.110Z,21.75
2022-11-05T11:34:58.331Z,27.25
2022-11-05T11:40:13.406Z,31.46
2022-11-05T11:45:27.342Z,32.40
2022-11-05T11:50:31.371Z,26.16
2022-11-05T11:55:32.689Z,23.42
2022-11-05T12:00:44.514Z,26.73
2022-11-05T12:05:54.719Z,32.64
2022-11-05T12:11:08.330Z,34.48
2022-11-05T12:16:22.546Z,34.83
2022-11-05T12:21:52.545Z,35.62
2022-11-05T12:27:21.415Z,36.74
2022-11-05T12:32:55.585Z,37.01
2022-11-05T12:38:21.755Z,37.80
2022-11-05T12:43:32.038Z,38.34
2022-11-05T12:48:57.129Z,34.32
2022-11-05T12:54:32.569Z,27.91
2022-11-05T12:59:40.087Z,24.38
2022-11-05T13:04:46.034Z,21.65
2022-11-05T13:09:55.326Z,22.14
2022-11-05T13:15:00.883Z,21.31
2022-11-05T13:20:17.170Z,20.10
2022-11-05T13:25:25.495Z,19.04
2022-11-05T13:30:34.553Z,17.92
2022-11-05T13:36:25.236Z,17.38
2022-11-05T13:41:45.438Z,16.99
2022-11-05T13:47:11.908Z,16.65
2022-11-05T13:52:13.167Z,16.37
2022-11-05T13:57:31.911Z,15.64
2022-11-05T14:02:42.043Z,15.29
2022-11-05T14:07:47.550Z,14.61
2022-11-05T14:12:55.433Z,15.10
2022-11-05T14:18:01.327Z,15.39
2022-11-05T14:23:21.113Z,15.40
2022-11-05T14:28:34.529Z,15.37
2022-11-05T14:33:39.664Z,15.33
2022-11-05T14:38:49.881Z,15.12
2022-11-05T14:43:58.623Z,15.06
2022-11-05T14:49:09.083Z,14.73
2022-11-05T14:54:27.769Z,14.40
2022-11-05T14:59:29.048Z,14.43
2022-11-05T15:04:49.217Z,14.35
2022-11-05T15:10:03.204Z,14.09
2022-11-05T15:15:22.276Z,13.64
2022-11-05T15:20:46.075Z,13.27
2022-11-05T15:26:09.060Z,13.17
2022-11-05T15:31:13.566Z,13.07
2022-11-05T15:36:24.941Z,13.04
2022-11-05T15:41:31.899Z,13.19
2022-11-05T15:46:33.364Z,13.23
2022-11-05T15:51:36.006Z,13.12
2022-11-05T15:56:48.211Z,13.07
2022-11-05T16:01:56.780Z,12.92
2022-11-05T16:07:01.551Z,12.79
2022-11-05T16:12:27.165Z,12.48
2022-11-05T16:17:39.523Z,12.37
2022-11-05T16:22:49.050Z,12.30
2022-11-05T16:27:50.484Z,12.14
2022-11-05T16:32:52.953Z,12.02
2022-11-05T16:37:54.319Z,12.09
2022-11-05T16:43:08.500Z,12.05
2022-11-05T16:48:12.726Z,11.79
2022-11-05T16:53:14.513Z,11.68
2022-11-05T16:58:25.085Z,11.77
2022-11-05T17:03:26.420Z,11.75
2022-11-05T17:08:27.919Z,11.48
2022-11-05T17:13:29.224Z,11.26
2022-11-05T17:18:30.703Z,11.22
2022-11-05T17:23:34.307Z,11.24
2022-11-05T17:28:35.824Z,11.08
2022-11-05T17:33:37.190Z,11.14
2022-11-05T17:38:38.655Z,10.81
2022-11-05T17:43:40.020Z,10.73
2022-11-05T17:48:41.598Z,10.69
2022-11-05T17:53:44.637Z,10.75
2022-11-05T17:58:45.944Z,10.52
2022-11-05T18:03:47.243Z,10.46
2022-11-05T18:08:48.848Z,10.44
2022-11-05T18:13:50.311Z,10.53
2022-11-05T18:18:51.734Z,10.41
2022-11-05T18:23:53.107Z,10.36
2022-11-05T18:28:54.460Z,10.39
2022-11-05T18:33:58.649Z,10.34
2022-11-05T18:39:02.762Z,10.29
2022-11-05T18:44:05.094Z,10.36
2022-11-05T18:49:07.052Z,10.14
2022-11-05T18:54:08.814Z,10.07
2022-11-05T18:59:35.074Z,9.97
2022-11-05T19:04:32.072Z,10.13
2022-11-05T19:09:34.439Z,10.09
2022-11-05T19:14:36.029Z,9.73
2022-11-05T19:19:37.567Z,9.73
2022-11-05T19:24:38.867Z,9.65
2022-11-05T19:29:40.172Z,9.60
2022-11-05T19:34:41.567Z,9.64
2022-11-05T19:39:43.168Z,9.55
2022-11-05T19:44:44.495Z,9.59
2022-11-05T19:49:45.816Z,9.60
2022-11-05T19:54:47.174Z,9.64
2022-11-05T19:59:50.392Z,9.71
2022-11-05T20:04:51.751Z,9.62
2022-11-05T20:09:53.088Z,9.44
2022-11-05T20:14:54.464Z,9.33
2022-11-05T20:19:56.183Z,9.31
2022-11-05T20:24:57.504Z,9.27
2022-11-05T20:29:58.799Z,9.31
2022-11-05T20:35:00.082Z,9.29
2022-11-05T20:40:01.445Z,9.17
2022-11-05T20:45:02.821Z,9.23
2022-11-05T20:50:05.183Z,9.24
2022-11-05T20:55:09.089Z,9.10
2022-11-05T21:00:11.626Z,9.20
2022-11-05T21:05:12.990Z,9.18
2022-11-05T21:10:14.324Z,9.28
2022-11-05T21:15:20.109Z,9.36
2022-11-05T21:20:21.467Z,9.36
2022-11-05T21:25:22.747Z,9.51
2022-11-05T21:30:24.110Z,9.43
2022-11-05T21:35:25.515Z,9.36
2022-11-05T21:40:26.839Z,9.28
2022-11-05T21:45:28.132Z,9.44
2022-11-05T21:50:47.754Z,9.32
2022-11-05T21:56:07.695Z,9.46
2022-11-05T22:01:09.104Z,9.49
2022-11-05T22:06:10.781Z,9.35
2022-11-05T22:11:12.088Z,9.36
2022-11-05T22:16:13.392Z,9.51
2022-11-05T22:21:18.733Z,9.51
2022-11-05T22:26:20.106Z,9.44
2022-11-05T22:31:22.013Z,9.38
2022-11-05T22:36:23.412Z,9.36
2022-11-05T22:41:24.809Z,9.46
2022-11-05T22:46:27.074Z,9.43
2022-11-05T22:51:33.512Z,9.46
2022-11-05T22:56:39.386Z,9.41
2022-11-05T23:01:41.633Z,9.25
2022-11-05T23:07:01.464Z,9.34
2022-11-05T23:12:06.188Z,9.24
2022-11-05T23:17:27.227Z,9.07
2022-11-05T23:22:49.654Z,8.98
2022-11-05T23:27:53.216Z,8.93
2022-11-05T23:32:55.731Z,8.90
2022-11-05T23:38:15.771Z,8.92
2022-11-05T23:43:36.016Z,9.01
2022-11-05T23:48:37.776Z,9.17
2022-11-05T23:53:40.775Z,9.10
2022-11-05T23:58:42.532Z,8.95
